Time;durP1;ratioP1;P1;durP2;ratioP2;P2;SDS_P1;SDS_P2;PMS_P1;PMS_P2;Temp;Humidity;BMP_temperature;BMP_pressure;BME280_temperature;BME280_humidity;BME280_pressure;Samples;Min_cycle;Max_cycle;Signal;HPM_P1;HPM_P2
2022/04/23 00:02:30;;;;;;;28.17;15.15;;;11.90;99.90;;;;;;5249024;28;20082;-72
2022/04/23 00:05:00;;;;;;;23.85;16.70;;;12.00;99.90;;;;;;5248353;28;20116;-72
2022/04/23 00:07:31;;;;;;;24.95;16.55;;;11.80;99.90;;;;;;5247238;28;20029;-72
2022/04/23 00:10:02;;;;;;;20.60;15.23;;;11.80;99.90;;;;;;5248209;28;20027;-71
2022/04/23 00:12:33;;;;;;;23.60;16.45;;;11.80;99.90;;;;;;5247521;28;20027;-71
2022/04/23 00:15:06;;;;;;;23.23;15.45;;;11.90;99.90;;;;;;5248730;28;20025;-71
2022/04/23 00:17:37;;;;;;;20.75;15.43;;;11.80;99.90;;;;;;5248735;28;20023;-72
2022/04/23 00:20:08;;;;;;;26.90;17.17;;;11.90;99.90;;;;;;5248739;28;20050;-79
2022/04/23 00:22:40;;;;;;;23.27;15.75;;;11.80;99.90;;;;;;5248677;28;20060;-78
2022/04/23 00:25:11;;;;;;;38.20;21.77;;;11.80;99.90;;;;;;5247511;28;20536;-71
2022/04/23 00:27:42;;;;;;;29.58;18.40;;;11.80;99.90;;;;;;5248388;28;20103;-71
2022/04/23 00:30:13;;;;;;;21.33;14.70;;;11.90;99.90;;;;;;5248265;28;20046;-76
2022/04/23 00:32:43;;;;;;;26.73;17.70;;;11.90;99.90;;;;;;5248095;28;20032;-72
2022/04/23 00:35:16;;;;;;;34.72;22.75;;;12.00;99.90;;;;;;5248165;28;20021;-72
2022/04/23 00:37:47;;;;;;;34.38;20.65;;;12.00;99.90;;;;;;5248459;28;20380;-78
2022/04/23 00:40:20;;;;;;;27.63;17.90;;;11.80;99.90;;;;;;5248269;28;20035;-78
2022/04/23 00:42:56;;;;;;;25.55;16.90;;;12.00;99.90;;;;;;5248361;28;20098;-77
2022/04/23 00:45:28;;;;;;;29.65;18.85;;;11.90;99.90;;;;;;5248383;28;20024;-78
2022/04/23 00:47:58;;;;;;;31.33;20.23;;;12.10;99.90;;;;;;5248383;28;20037;-78
2022/04/23 00:50:29;;;;;;;28.27;19.50;;;12.20;99.90;;;;;;5246879;28;20464;-73
2022/04/23 00:53:04;;;;;;;31.10;19.95;;;12.20;99.90;;;;;;5248310;28;20492;-71
2022/04/23 00:55:36;;;;;;;34.40;21.02;;;12.40;99.90;;;;;;5248277;28;20032;-71
2022/04/23 00:58:07;;;;;;;37.63;25.40;;;12.30;99.90;;;;;;5248189;28;20025;-72
2022/04/23 01:00:40;;;;;;;37.85;24.20;;;12.40;99.90;;;;;;5248012;28;20410;-74
2022/04/23 01:03:12;;;;;;;41.40;27.90;;;12.30;99.90;;;;;;5248066;28;20013;-72
2022/04/23 01:05:45;;;;;;;39.53;27.52;;;12.40;99.90;;;;;;5247840;28;20052;-71
2022/04/23 01:08:19;;;;;;;46.95;25.75;;;12.40;99.90;;;;;;5247905;28;20032;-72
2022/04/23 01:10:49;;;;;;;39.58;27.20;;;12.20;99.90;;;;;;5247965;28;20092;-71
2022/04/23 01:13:21;;;;;;;39.72;25.83;;;12.30;99.90;;;;;;5248115;28;20052;-78
2022/04/23 01:16:07;;;;;;;39.50;25.05;;;12.40;99.90;;;;;;5247958;28;20024;-78
2022/04/23 01:18:42;;;;;;;37.50;26.00;;;12.40;99.90;;;;;;5250194;28;20028;-78
2022/04/23 01:21:13;;;;;;;42.20;24.30;;;12.30;99.90;;;;;;5252201;28;20344;-78
2022/04/23 01:23:47;;;;;;;34.15;22.17;;;12.40;99.90;;;;;;5252004;28;20028;-72
2022/04/23 01:26:31;;;;;;;32.78;21.08;;;12.30;99.90;;;;;;5250767;28;20023;-72
2022/04/23 01:29:02;;;;;;;28.67;19.65;;;12.30;99.90;;;;;;5252115;28;20020;-78
2022/04/23 01:31:33;;;;;;;36.17;22.00;;;12.40;99.90;;;;;;5251946;28;20071;-72
2022/04/23 01:34:04;;;;;;;36.40;22.52;;;12.30;99.90;;;;;;5251835;28;20056;-71
2022/04/23 01:36:35;;;;;;;41.22;24.80;;;12.40;99.90;;;;;;5251857;28;20024;-72
2022/04/23 01:39:06;;;;;;;32.83;21.48;;;12.40;99.90;;;;;;5251887;28;20433;-73
2022/04/23 01:41:36;;;;;;;31.90;19.63;;;12.10;99.90;;;;;;5251864;28;20460;-73
2022/04/23 01:44:07;;;;;;;31.38;20.25;;;12.30;99.90;;;;;;5251690;28;20023;-72
2022/04/23 01:46:38;;;;;;;33.00;20.15;;;12.30;99.90;;;;;;5251801;28;20020;-72
2022/04/23 01:49:09;;;;;;;32.58;20.45;;;12.20;99.90;;;;;;5251516;28;20032;-75
2022/04/23 01:51:40;;;;;;;29.42;18.48;;;12.20;99.90;;;;;;5251577;28;20036;-72
2022/04/23 01:54:10;;;;;;;32.78;18.95;;;12.30;99.90;;;;;;5251589;28;20028;-72
2022/04/23 01:56:41;;;;;;;38.00;22.30;;;12.40;99.90;;;;;;5251559;28;20527;-77
2022/04/23 01:59:12;;;;;;;37.85;22.13;;;12.30;99.90;;;;;;5251341;28;20472;-77
2022/04/23 02:01:43;;;;;;;36.78;23.42;;;12.40;99.90;;;;;;5251443;28;20032;-77
2022/04/23 02:04:14;;;;;;;36.92;22.27;;;12.40;99.90;;;;;;5251167;28;20020;-72
2022/04/23 02:06:46;;;;;;;38.70;24.85;;;12.30;99.90;;;;;;5251006;28;20127;-71
2022/04/23 02:09:17;;;;;;;44.40;27.02;;;12.40;99.90;;;;;;5251200;28;20054;-77
2022/04/23 02:11:48;;;;;;;45.22;26.67;;;12.20;99.90;;;;;;5250931;28;20032;-72
2022/04/23 02:14:19;;;;;;;40.75;25.88;;;12.20;99.90;;;;;;5251086;28;20017;-72
2022/04/23 02:16:50;;;;;;;43.03;26.40;;;12.10;99.90;;;;;;5251141;28;20044;-72
2022/04/23 02:19:22;;;;;;;43.95;27.23;;;12.20;99.90;;;;;;5249781;28;20047;-72
2022/04/23 02:21:52;;;;;;;42.60;26.02;;;12.10;99.90;;;;;;5251034;28;20449;-78
2022/04/23 02:24:23;;;;;;;37.95;24.25;;;12.20;99.90;;;;;;5250789;28;20025;-77
2022/04/23 02:26:54;;;;;;;39.35;24.40;;;12.10;99.90;;;;;;5250940;28;20016;-77
2022/04/23 02:29:25;;;;;;;24.08;15.48;;;12.20;99.90;;;;;;5250355;28;20020;-72
2022/04/23 02:31:56;;;;;;;24.92;15.15;;;12.90;99.90;;;;;;5249101;28;20090;-71
2022/04/23 02:34:27;;;;;;;25.80;17.10;;;13.20;99.90;;;;;;5250602;28;20024;-77
2022/04/23 02:36:57;;;;;;;28.45;15.80;;;12.80;99.90;;;;;;5250652;28;20031;-77
2022/04/23 02:39:28;;;;;;;26.08;15.23;;;12.80;99.90;;;;;;5250614;28;20024;-78
2022/04/23 02:41:59;;;;;;;28.40;14.85;;;12.70;99.90;;;;;;5250619;28;20033;-71
2022/04/23 02:44:30;;;;;;;32.08;10.32;;;12.80;99.90;;;;;;5250473;28;20025;-73
2022/04/23 02:47:02;;;;;;;18.80;11.10;;;14.60;99.90;;;;;;5250666;28;20020;-72
2022/04/23 02:49:33;;;;;;;18.00;12.27;;;14.30;99.90;;;;;;5250376;28;20029;-78
2022/04/23 02:52:04;;;;;;;26.92;15.43;;;13.30;99.90;;;;;;5250440;28;20033;-77
2022/04/23 02:54:35;;;;;;;34.45;21.27;;;13.20;99.90;;;;;;5249260;28;20542;-78
2022/04/23 02:57:05;;;;;;;38.33;23.67;;;13.00;99.90;;;;;;5250330;28;20024;-78
2022/04/23 02:59:36;;;;;;;38.75;24.90;;;12.60;99.90;;;;;;5250405;28;20078;-77
2022/04/23 03:02:07;;;;;;;42.75;22.70;;;12.60;99.90;;;;;;5250467;28;20026;-71
2022/04/23 03:04:38;;;;;;;37.97;24.05;;;12.70;99.90;;;;;;5250521;28;20032;-72
2022/04/23 03:07:10;;;;;;;44.17;24.33;;;12.50;99.90;;;;;;5250090;28;20052;-78
2022/04/23 03:09:41;;;;;;;34.50;22.58;;;12.50;99.90;;;;;;5248792;28;20025;-72
2022/04/23 03:12:12;;;;;;;20.92;13.27;;;12.50;99.90;;;;;;5250000;28;20051;-72
2022/04/23 03:14:45;;;;;;;26.95;17.00;;;13.90;99.90;;;;;;5248564;28;20108;-71
2022/04/23 03:17:16;;;;;;;32.17;19.95;;;13.30;99.90;;;;;;5249888;28;20029;-78
2022/04/23 03:19:47;;;;;;;23.23;14.82;;;12.60;99.90;;;;;;5249857;28;20024;-77
2022/04/23 03:22:19;;;;;;;22.42;13.45;;;13.50;99.90;;;;;;5248102;28;20031;-77
2022/04/23 03:24:50;;;;;;;19.85;12.90;;;13.80;99.90;;;;;;5249989;28;20020;-77
2022/04/23 03:27:21;;;;;;;17.75;10.27;;;14.00;99.90;;;;;;5249848;28;20020;-77
2022/04/23 03:29:53;;;;;;;17.75;10.85;;;14.50;99.90;;;;;;5249784;28;20023;-78
2022/04/23 03:32:24;;;;;;;16.52;9.98;;;14.50;99.90;;;;;;5249627;28;20032;-72
2022/04/23 03:34:55;;;;;;;20.33;10.18;;;14.50;99.90;;;;;;5249343;28;20549;-78
2022/04/23 03:37:29;;;;;;;18.08;10.73;;;14.30;99.90;;;;;;5248337;28;20036;-72
2022/04/23 03:40:00;;;;;;;11.60;8.93;;;14.40;99.90;;;;;;5247732;28;20023;-78
2022/04/23 03:42:31;;;;;;;14.10;8.75;;;14.10;99.90;;;;;;5248922;28;20048;-71
2022/04/23 03:45:04;;;;;;;16.13;9.13;;;14.10;99.90;;;;;;5249370;28;20552;-71
2022/04/23 03:47:34;;;;;;;13.30;8.73;;;14.30;99.90;;;;;;5249358;28;20119;-78
2022/04/23 03:50:07;;;;;;;15.93;9.02;;;14.80;99.90;;;;;;5248763;28;20108;-71
2022/04/23 03:52:38;;;;;;;12.57;8.10;;;14.30;99.90;;;;;;5249115;28;20036;-71
2022/04/23 03:55:11;;;;;;;14.27;7.93;;;14.60;99.90;;;;;;5249272;28;20016;-71
2022/04/23 03:57:47;;;;;;;13.45;8.63;;;15.10;99.90;;;;;;5249189;28;20031;-71
2022/04/23 04:00:20;;;;;;;17.95;9.05;;;15.30;99.90;;;;;;5247694;28;20357;-76
2022/04/23 04:02:51;;;;;;;13.63;8.30;;;14.90;99.90;;;;;;5248909;28;20028;-71
2022/04/23 04:05:22;;;;;;;15.80;9.40;;;14.70;99.90;;;;;;5248514;28;20058;-71
2022/04/23 04:07:53;;;;;;;16.25;8.57;;;14.70;99.90;;;;;;5248879;28;20040;-78
2022/04/23 04:10:24;;;;;;;18.15;9.73;;;14.60;99.90;;;;;;5248818;28;20032;-78
2022/04/23 04:12:55;;;;;;;18.10;10.07;;;15.00;99.90;;;;;;5248879;28;20480;-78
2022/04/23 04:15:26;;;;;;;13.57;9.25;;;15.30;99.90;;;;;;5248745;28;20024;-71
2022/04/23 04:17:57;;;;;;;21.13;11.00;;;15.10;99.90;;;;;;5248601;28;20116;-72
2022/04/23 04:20:32;;;;;;;13.60;9.65;;;15.10;99.90;;;;;;5248702;28;20368;-71
2022/04/23 04:23:03;;;;;;;19.77;10.82;;;14.80;99.90;;;;;;5248624;28;20025;-78
2022/04/23 04:25:35;;;;;;;18.67;10.30;;;14.80;99.90;;;;;;5247273;28;20034;-75
2022/04/23 04:28:06;;;;;;;15.82;9.80;;;14.70;99.90;;;;;;5248598;28;20052;-72
2022/04/23 04:33:26;;;;;;;18.73;11.05;;;14.60;99.90;;;;;;5248437;28;20399;-73
2022/04/23 04:35:57;;;;;;;17.55;11.27;;;14.50;99.90;;;;;;5248228;28;20021;-72
2022/04/23 04:38:28;;;;;;;18.58;10.60;;;15.00;99.90;;;;;;5248250;28;20476;-72
2022/04/23 04:40:59;;;;;;;19.15;11.48;;;15.00;99.90;;;;;;5248289;28;20017;-72
2022/04/23 04:43:30;;;;;;;17.05;10.65;;;14.30;99.90;;;;;;5248210;28;20048;-71
2022/04/23 04:46:02;;;;;;;21.20;11.48;;;14.50;99.90;;;;;;5248237;28;20021;-77
2022/04/23 04:48:33;;;;;;;17.98;10.80;;;14.10;99.90;;;;;;5246993;28;20043;-71
2022/04/23 04:51:04;;;;;;;16.85;10.52;;;14.20;99.90;;;;;;5248399;28;20033;-71
2022/04/23 04:53:35;;;;;;;21.27;13.02;;;14.20;99.90;;;;;;5247767;28;20028;-71
2022/04/23 04:56:07;;;;;;;22.80;13.45;;;14.70;99.90;;;;;;5248266;28;20111;-78
2022/04/23 04:58:38;;;;;;;18.50;11.73;;;14.80;99.90;;;;;;5248302;28;20117;-73
2022/04/23 05:01:09;;;;;;;17.98;10.50;;;14.20;99.90;;;;;;5248188;28;20054;-72
2022/04/23 05:03:40;;;;;;;15.85;10.27;;;14.40;99.90;;;;;;5247904;28;20110;-71
2022/04/23 05:06:11;;;;;;;27.98;12.55;;;14.40;99.90;;;;;;5247825;28;20052;-71
2022/04/23 05:08:42;;;;;;;16.15;10.30;;;14.20;99.90;;;;;;5248035;28;20500;-72
2022/04/23 05:11:13;;;;;;;18.27;10.93;;;14.20;99.90;;;;;;5248085;28;20158;-77
2022/04/23 05:13:43;;;;;;;19.13;10.85;;;14.20;99.90;;;;;;5248062;28;20032;-71
2022/04/23 05:16:14;;;;;;;19.10;10.23;;;14.30;99.90;;;;;;5247943;28;20079;-77
2022/04/23 05:18:45;;;;;;;18.50;10.57;;;14.40;99.90;;;;;;5247994;28;20035;-78
2022/04/23 05:21:16;;;;;;;21.20;12.02;;;14.50;99.90;;;;;;5247814;28;20020;-79
2022/04/23 05:23:47;;;;;;;22.10;11.60;;;14.90;99.90;;;;;;5247801;28;20043;-72
2022/04/23 05:26:18;;;;;;;20.52;11.57;;;15.10;99.90;;;;;;5247362;28;20030;-78
2022/04/23 05:28:49;;;;;;;20.05;11.88;;;14.60;99.90;;;;;;5246686;28;20032;-78
2022/04/23 05:31:21;;;;;;;17.50;10.93;;;15.30;99.90;;;;;;5247650;28;20035;-75
2022/04/23 05:33:51;;;;;;;17.10;10.85;;;15.50;99.90;;;;;;5247778;28;20028;-72
2022/04/23 05:36:22;;;;;;;21.15;12.10;;;15.70;99.90;;;;;;5247582;28;20407;-71
2022/04/23 05:38:54;;;;;;;21.88;12.23;;;15.70;99.90;;;;;;5246538;28;20044;-72
2022/04/23 05:41:25;;;;;;;21.50;12.77;;;15.80;99.90;;;;;;5232452;28;20017;-72
2022/04/23 05:43:56;;;;;;;21.60;11.90;;;15.80;99.90;;;;;;5246420;28;20086;-78
2022/04/23 05:46:28;;;;;;;24.35;12.27;;;16.00;99.90;;;;;;5247614;28;20023;-77
2022/04/23 05:49:00;;;;;;;21.83;11.75;;;16.00;99.90;;;;;;5245780;28;20342;-77
2022/04/23 05:51:30;;;;;;;20.45;11.48;;;16.10;99.90;;;;;;5247673;28;20115;-79
2022/04/23 05:54:01;;;;;;;22.48;13.35;;;16.20;99.90;;;;;;5247730;28;20468;-71
2022/04/23 05:56:32;;;;;;;18.02;10.50;;;16.00;99.90;;;;;;5243879;28;20025;-77
2022/04/23 05:59:03;;;;;;;19.63;12.90;;;16.20;99.90;;;;;;5234012;28;20049;-75
2022/04/23 06:01:34;;;;;;;20.08;11.75;;;16.40;99.90;;;;;;5235222;28;20021;-76
2022/04/23 06:04:05;;;;;;;19.05;11.60;;;16.50;99.90;;;;;;5247355;28;20420;-72
2022/04/23 06:06:36;;;;;;;16.83;11.30;;;16.70;99.90;;;;;;5241660;28;20061;-71
2022/04/23 06:09:16;;;;;;;15.80;11.25;;;16.60;99.90;;;;;;5230565;28;20036;-72
2022/04/23 06:11:50;;;;;;;22.77;10.95;;;16.70;99.90;;;;;;5230425;28;20412;-71
2022/04/23 06:14:25;;;;;;;17.67;10.63;;;16.80;99.90;;;;;;5229414;28;20051;-78
2022/04/23 06:17:00;;;;;;;11.93;10.13;;;16.90;99.90;;;;;;5241737;28;20033;-72
2022/04/23 06:19:33;;;;;;;22.20;11.68;;;17.00;99.90;;;;;;5251057;28;20111;-71
2022/04/23 06:22:07;;;;;;;25.98;10.25;;;17.10;99.90;;;;;;5248000;28;20023;-71
2022/04/23 06:24:38;;;;;;;16.75;9.60;;;17.10;99.90;;;;;;5250940;28;20030;-71
2022/04/23 06:27:09;;;;;;;14.15;9.43;;;17.20;99.90;;;;;;5249624;28;20020;-75
2022/04/23 06:29:40;;;;;;;15.05;9.30;;;17.30;99.90;;;;;;5250809;28;20029;-77
2022/04/23 06:32:11;;;;;;;14.02;9.18;;;17.40;99.90;;;;;;5250462;28;20033;-71
2022/04/23 06:34:42;;;;;;;14.27;8.05;;;17.60;99.90;;;;;;5250510;28;20028;-71
2022/04/23 06:37:13;;;;;;;12.50;8.82;;;17.90;99.90;;;;;;5250476;28;20091;-73
2022/04/23 06:39:44;;;;;;;17.52;8.93;;;18.30;99.90;;;;;;5250826;28;20056;-71
2022/04/23 06:42:15;;;;;;;11.57;7.68;;;18.40;99.90;;;;;;5244896;28;20036;-71
2022/04/23 06:44:46;;;;;;;11.27;7.30;;;18.40;99.90;;;;;;5229885;28;20390;-72
2022/04/23 06:47:17;;;;;;;12.40;6.97;;;18.50;99.90;;;;;;5229837;28;20029;-72
2022/04/23 06:49:48;;;;;;;12.30;6.68;;;18.70;99.90;;;;;;5229932;28;20091;-72
2022/04/23 06:52:19;;;;;;;11.20;7.40;;;19.10;99.90;;;;;;5229609;28;20025;-78
2022/04/23 06:54:51;;;;;;;10.98;6.88;;;19.10;99.90;;;;;;5228368;28;20025;-72
2022/04/23 06:57:23;;;;;;;11.32;5.78;;;19.30;99.90;;;;;;5229934;28;20021;-72
2022/04/23 06:59:54;;;;;;;9.60;5.25;;;19.70;99.90;;;;;;5229709;28;20021;-77
2022/04/23 07:02:25;;;;;;;9.27;4.88;;;19.80;99.90;;;;;;5229425;28;20075;-72
2022/04/23 07:04:56;;;;;;;7.40;4.30;;;20.00;99.90;;;;;;5229338;28;20037;-78
2022/04/23 07:07:27;;;;;;;9.27;5.75;;;20.30;99.90;;;;;;5229456;28;20041;-72
2022/04/23 07:09:58;;;;;;;7.95;5.65;;;20.50;99.90;;;;;;5228077;28;20025;-72
2022/04/23 07:12:29;;;;;;;9.50;4.85;;;20.20;99.90;;;;;;5228926;28;20059;-72
2022/04/23 07:15:15;;;;;;;8.90;5.43;;;20.60;99.90;;;;;;5227963;28;20109;-72
2022/04/23 07:17:50;;;;;;;7.05;3.20;;;21.20;99.90;;;;;;5229136;28;20063;-72
2022/04/23 07:20:25;;;;;;;6.15;3.35;;;20.80;99.90;;;;;;5229302;28;20529;-72
2022/04/23 07:25:51;;;;;;;7.30;3.60;;;21.50;99.90;;;;;;5229195;28;20056;-73
2022/04/23 07:28:26;;;;;;;9.05;4.28;;;21.90;99.90;;;;;;5228967;28;20017;-73
2022/04/23 07:31:05;;;;;;;6.55;3.55;;;21.90;99.90;;;;;;5229119;28;20526;-72
2022/04/23 07:39:26;;;;;;;6.68;3.75;;;22.80;99.90;;;;;;5229115;28;20373;-73
2022/04/23 07:42:02;;;;;;;7.15;4.45;;;22.50;99.90;;;;;;5228807;28;20025;-72
2022/04/23 07:44:37;;;;;;;4.72;2.72;;;22.90;99.90;;;;;;5225544;28;20032;-72
2022/04/23 07:47:08;;;;;;;7.95;2.70;;;23.10;96.10;;;;;;5228743;28;20021;-73
2022/04/23 07:49:39;;;;;;;4.93;2.45;;;22.80;90.50;;;;;;5228705;28;20028;-77
2022/04/23 07:52:09;;;;;;;3.50;1.77;;;22.70;83.80;;;;;;5228492;28;20063;-78
2022/04/23 07:54:41;;;;;;;5.65;2.10;;;22.80;79.00;;;;;;5228113;28;20357;-74
2022/04/23 07:57:13;;;;;;;4.95;2.10;;;23.20;82.50;;;;;;5239889;28;20021;-76
2022/04/23 07:59:44;;;;;;;3.63;2.20;;;23.00;75.50;;;;;;5247567;28;20341;-72
2022/04/23 08:02:15;;;;;;;3.90;2.22;;;23.20;75.90;;;;;;5248808;28;20027;-78
2022/04/23 08:04:46;;;;;;;5.35;2.15;;;23.20;76.60;;;;;;5248304;28;20035;-78
2022/04/23 08:07:16;;;;;;;4.07;2.10;;;23.40;76.10;;;;;;5248923;28;20037;-77
2022/04/23 08:09:47;;;;;;;3.90;2.30;;;23.70;74.40;;;;;;5248678;28;20483;-72
2022/04/23 08:12:18;;;;;;;3.20;2.00;;;23.40;74.60;;;;;;5247667;28;20044;-71
2022/04/23 08:14:50;;;;;;;4.90;2.00;;;23.60;75.60;;;;;;5247665;28;20044;-77
2022/04/23 08:17:21;;;;;;;3.78;1.73;;;24.20;76.40;;;;;;5248790;28;20036;-72
2022/04/23 08:19:52;;;;;;;3.17;1.80;;;23.70;70.10;;;;;;5248877;28;20032;-72
2022/04/23 08:22:23;;;;;;;3.40;1.50;;;23.60;70.80;;;;;;5248688;28;20016;-72
2022/04/23 08:24:54;;;;;;;2.92;1.30;;;24.10;73.30;;;;;;5247452;28;20079;-72
2022/04/23 08:27:24;;;;;;;3.53;1.52;;;24.00;68.10;;;;;;5248310;28;20490;-72
2022/04/23 08:32:44;;;;;;;4.47;1.85;;;24.40;69.50;;;;;;5248607;28;20040;-72
2022/04/23 08:35:15;;;;;;;2.95;1.83;;;24.20;72.90;;;;;;5247205;28;20028;-72
2022/04/23 08:37:46;;;;;;;6.45;1.60;;;24.60;69.70;;;;;;5248363;28;20078;-72
2022/04/23 08:40:17;;;;;;;3.17;1.30;;;24.50;68.20;;;;;;5248537;28;20444;-72
2022/04/23 08:42:48;;;;;;;3.38;1.80;;;25.00;73.30;;;;;;5247059;28;20039;-71
2022/04/23 08:45:19;;;;;;;4.75;1.80;;;24.20;69.00;;;;;;5248459;28;20095;-72
2022/04/23 08:47:51;;;;;;;3.83;1.38;;;24.50;69.00;;;;;;5248326;28;20031;-71
2022/04/23 08:50:23;;;;;;;2.17;1.60;;;24.70;64.20;;;;;;5248249;28;20021;-71
2022/04/23 08:52:56;;;;;;;2.55;1.52;;;24.70;64.60;;;;;;5247046;28;20058;-72
2022/04/23 08:55:27;;;;;;;3.22;1.50;;;24.90;67.20;;;;;;5246715;28;20039;-71
2022/04/23 08:57:58;;;;;;;3.75;2.03;;;24.40;63.70;;;;;;5248021;28;20060;-72
2022/04/23 09:00:29;;;;;;;4.65;1.85;;;24.40;64.80;;;;;;5247051;28;20023;-71
2022/04/23 09:03:00;;;;;;;2.00;1.70;;;24.40;64.60;;;;;;5244726;28;20120;-72
2022/04/23 09:05:31;;;;;;;3.00;1.63;;;24.80;69.60;;;;;;5237484;28;20131;-73
2022/04/23 09:08:05;;;;;;;4.68;1.70;;;24.30;65.70;;;;;;5227249;28;20504;-71
2022/04/23 09:10:47;;;;;;;4.13;1.67;;;24.50;66.30;;;;;;5245072;28;20101;-71
2022/04/23 09:13:25;;;;;;;3.60;1.92;;;24.80;69.60;;;;;;5236798;28;20029;-71
2022/04/23 09:24:48;;;;;;;4.57;1.52;;;24.60;59.60;;;;;;5227505;28;19909;-72
2022/04/23 09:27:21;;;;;;;2.65;1.65;;;25.10;65.40;;;;;;5227309;28;20024;-72
2022/04/23 09:30:06;;;;;;;4.35;1.85;;;25.10;67.00;;;;;;5225995;28;20029;-72
2022/04/23 09:32:54;;;;;;;4.75;1.88;;;25.10;64.60;;;;;;5227054;28;20034;-71
2022/04/23 09:35:25;;;;;;;3.40;1.90;;;25.20;66.00;;;;;;5225954;28;20495;-71
2022/04/23 09:38:11;;;;;;;3.42;1.50;;;25.20;67.50;;;;;;5227270;28;20060;-71
2022/04/23 09:40:42;;;;;;;3.00;1.70;;;25.10;66.20;;;;;;5231063;28;20526;-72
2022/04/23 09:43:13;;;;;;;5.18;1.90;;;25.00;64.90;;;;;;5229926;28;20385;-71
2022/04/23 09:45:44;;;;;;;3.13;1.80;;;25.10;64.30;;;;;;5230754;28;20039;-72
2022/04/23 09:48:17;;;;;;;3.42;1.48;;;25.10;59.00;;;;;;5231088;28;20457;-72
2022/04/23 09:50:48;;;;;;;2.72;1.17;;;24.60;56.70;;;;;;5230633;28;20041;-72
2022/04/23 09:53:20;;;;;;;2.05;1.10;;;25.50;55.90;;;;;;5231025;28;20120;-72
2022/04/23 09:55:51;;;;;;;1.63;0.65;;;25.50;51.90;;;;;;5230997;28;20078;-77
2022/04/23 09:58:22;;;;;;;2.45;0.98;;;25.50;46.30;;;;;;5230931;28;20078;-72
2022/04/23 10:00:55;;;;;;;1.10;0.55;;;25.50;48.20;;;;;;5229211;28;20021;-72
2022/04/23 10:03:31;;;;;;;1.30;0.70;;;25.80;46.10;;;;;;5229402;28;20029;-72
2022/04/23 10:06:05;;;;;;;1.80;0.80;;;25.70;44.90;;;;;;5230463;28;20044;-73
2022/04/23 10:08:41;;;;;;;2.25;0.65;;;25.70;48.20;;;;;;5230767;28;20024;-72
2022/04/23 10:11:19;;;;;;;1.35;0.70;;;25.50;47.10;;;;;;5230720;28;20091;-72
2022/04/23 10:14:04;;;;;;;2.08;0.95;;;25.50;43.90;;;;;;5230649;28;20107;-72
2022/04/23 10:16:36;;;;;;;2.42;0.80;;;25.90;44.70;;;;;;5230526;28;20025;-74
2022/04/23 10:19:07;;;;;;;1.42;1.00;;;26.00;50.20;;;;;;5244153;28;20103;-74
2022/04/23 10:21:50;;;;;;;1.60;0.70;;;25.70;45.10;;;;;;5249617;28;20517;-72
2022/04/23 10:24:40;;;;;;;1.35;0.75;;;25.40;43.80;;;;;;5251103;28;20024;-73
2022/04/23 10:27:14;;;;;;;1.80;0.82;;;25.50;45.30;;;;;;5250979;28;20038;-75
2022/04/23 10:29:47;;;;;;;3.10;0.70;;;25.30;44.80;;;;;;5249913;28;20387;-73
2022/04/23 10:32:22;;;;;;;2.00;0.95;;;25.70;44.00;;;;;;5250951;28;20024;-72
2022/04/23 10:34:53;;;;;;;3.10;0.90;;;25.90;45.30;;;;;;5250742;28;20024;-73
2022/04/23 10:37:29;;;;;;;0.80;0.63;;;25.60;44.20;;;;;;5250866;28;20545;-72
2022/04/23 10:40:12;;;;;;;1.70;0.90;;;25.40;45.40;;;;;;5250884;28;20024;-73
2022/04/23 10:43:04;;;;;;;5.45;1.10;;;25.70;44.70;;;;;;5249533;28;20028;-73
2022/04/23 10:45:37;;;;;;;1.27;0.70;;;25.90;45.30;;;;;;5250455;28;20035;-73
2022/04/23 10:48:22;;;;;;;3.88;0.60;;;25.70;44.20;;;;;;5250532;28;20031;-72
2022/04/23 10:51:19;;;;;;;1.35;0.70;;;25.30;42.30;;;;;;5250179;28;20036;-72
2022/04/23 10:53:50;;;;;;;2.70;0.90;;;24.80;44.80;;;;;;5249481;28;20029;-73
2022/04/23 10:56:23;;;;;;;1.48;0.77;;;24.90;44.00;;;;;;5249216;28;20177;-73
2022/04/23 10:58:53;;;;;;;3.67;0.98;;;24.80;45.30;;;;;;5250385;28;20027;-73
2022/04/23 11:01:30;;;;;;;4.30;1.48;;;24.90;46.40;;;;;;5248917;28;20480;-73
2022/04/23 11:04:06;;;;;;;1.88;0.75;;;25.20;47.80;;;;;;5249959;28;20031;-72
2022/04/23 11:12:37;;;;;;;3.17;1.25;;;25.20;48.70;;;;;;5249874;28;20040;-73
2022/04/23 11:15:18;;;;;;;4.13;0.90;;;25.20;46.30;;;;;;5249032;28;20028;-75
2022/04/23 11:17:53;;;;;;;2.17;1.08;;;25.10;47.10;;;;;;5249171;28;20545;-77
2022/04/23 11:20:32;;;;;;;1.60;0.80;;;25.00;49.50;;;;;;5239065;28;20469;-78
2022/04/23 11:23:04;;;;;;;4.55;1.25;;;25.00;48.10;;;;;;5229626;28;20028;-76
2022/04/23 11:25:35;;;;;;;4.13;0.95;;;25.00;49.50;;;;;;5228204;28;20047;-77
2022/04/23 11:28:12;;;;;;;2.22;1.00;;;25.30;49.70;;;;;;5229337;28;20020;-77
2022/04/23 11:30:43;;;;;;;2.17;0.98;;;25.00;49.00;;;;;;5228220;28;20429;-76
2022/04/23 11:33:14;;;;;;;5.47;1.25;;;25.60;50.80;;;;;;5229104;28;20108;-76
2022/04/23 11:35:45;;;;;;;4.00;1.10;;;25.40;51.10;;;;;;5228892;28;20470;-76
2022/04/23 11:38:23;;;;;;;2.47;1.20;;;25.50;50.00;;;;;;5229105;28;20036;-75
2022/04/23 11:40:54;;;;;;;4.10;1.40;;;25.40;50.90;;;;;;5228978;28;20025;-75
2022/04/23 11:43:33;;;;;;;3.00;1.13;;;25.30;51.20;;;;;;5228822;28;20017;-75
2022/04/23 11:46:06;;;;;;;3.95;1.35;;;25.00;51.40;;;;;;5229020;28;20538;-78
2022/04/23 11:48:46;;;;;;;2.78;1.20;;;25.60;52.00;;;;;;5227463;28;20021;-75
2022/04/23 11:51:18;;;;;;;;;;;25.10;52.20;;;;;;5227975;28;20119;-77
2022/04/23 11:53:56;;;;;;;2.63;1.10;;;25.00;53.70;;;;;;5228754;28;20221;-75
2022/04/23 11:56:33;;;;;;;2.22;1.20;;;25.20;53.70;;;;;;5228450;28;20021;-77
2022/04/23 11:59:06;;;;;;;2.40;1.15;;;25.40;53.20;;;;;;5227436;28;20091;-78
2022/04/23 12:01:38;;;;;;;2.72;1.02;;;25.10;53.50;;;;;;5226441;28;20033;-76
2022/04/23 12:04:09;;;;;;;1.58;1.00;;;25.10;56.50;;;;;;5228394;28;20024;-77
2022/04/23 12:06:45;;;;;;;3.92;1.38;;;24.80;54.90;;;;;;5226946;28;20103;-76
2022/04/23 12:09:16;;;;;;;3.88;1.15;;;25.30;55.30;;;;;;5228041;28;20354;-77
2022/04/23 12:11:58;;;;;;;2.80;1.00;;;25.20;54.10;;;;;;5228403;28;20033;-77
2022/04/23 12:14:29;;;;;;;4.38;1.20;;;24.80;55.50;;;;;;5228384;28;20377;-77
2022/04/23 12:17:06;;;;;;;2.78;1.23;;;24.80;54.70;;;;;;5226943;28;20055;-78
2022/04/23 12:19:37;;;;;;;2.05;0.90;;;24.60;54.40;;;;;;5228326;28;20021;-78
2022/04/23 12:22:08;;;;;;;2.38;1.20;;;24.40;54.20;;;;;;5228194;28;20092;-75
2022/04/23 12:24:39;;;;;;;5.97;1.20;;;24.70;54.70;;;;;;5228156;28;20527;-76
2022/04/23 12:27:10;;;;;;;3.50;1.17;;;25.20;56.00;;;;;;5228180;28;20506;-75
2022/04/23 12:41:13;;;;;;;5.10;1.40;;;25.40;53.60;;;;;;5227953;28;20076;-78
2022/04/23 12:43:44;;;;;;;5.40;1.25;;;25.00;55.00;;;;;;5227791;28;20086;-78
2022/04/23 12:46:15;;;;;;;3.38;1.25;;;25.30;54.90;;;;;;5227766;28;20473;-78
2022/04/23 12:48:56;;;;;;;4.13;1.33;;;25.40;55.10;;;;;;5226321;28;20063;-78
2022/04/23 12:51:27;;;;;;;2.45;1.27;;;25.40;55.60;;;;;;5227333;28;20029;-78
2022/04/23 12:53:58;;;;;;;2.67;1.52;;;25.00;55.20;;;;;;5226216;28;20365;-78
2022/04/23 12:56:35;;;;;;;2.70;1.30;;;25.50;55.90;;;;;;5227207;28;20046;-75
2022/04/23 12:59:06;;;;;;;3.55;1.60;;;25.20;54.60;;;;;;5227511;28;20025;-78
2022/04/23 13:01:37;;;;;;;4.72;1.70;;;25.20;55.60;;;;;;5227528;28;20017;-78
2022/04/23 13:04:11;;;;;;;7.97;1.38;;;25.50;55.20;;;;;;5227439;28;20021;-78
2022/04/23 13:09:31;;;;;;;4.25;1.63;;;25.40;54.40;;;;;;5227623;28;20057;-77
2022/04/23 13:12:02;;;;;;;4.05;1.70;;;25.40;54.80;;;;;;5227309;28;20076;-78
2022/04/23 13:14:32;;;;;;;3.47;1.42;;;25.90;55.20;;;;;;5233790;28;20020;-74
2022/04/23 13:17:03;;;;;;;7.63;1.50;;;26.10;56.30;;;;;;5232588;28;20534;-77
2022/04/23 13:19:34;;;;;;;5.15;1.60;;;25.60;54.40;;;;;;5233855;28;20033;-77
2022/04/23 13:22:05;;;;;;;8.90;1.73;;;25.70;55.50;;;;;;5233968;28;20077;-74
2022/04/23 13:24:36;;;;;;;3.35;2.45;;;26.20;57.40;;;;;;5234162;28;20041;-79
2022/04/23 13:27:06;;;;;;;7.28;1.52;;;25.70;55.70;;;;;;5234135;28;20033;-76
2022/04/23 13:29:37;;;;;;;2.50;1.23;;;25.70;56.20;;;;;;5234163;28;20029;-75
2022/04/23 13:32:08;;;;;;;6.60;1.45;;;25.90;56.00;;;;;;5234077;28;20029;-78
2022/04/23 13:34:39;;;;;;;6.18;1.80;;;26.10;55.20;;;;;;5233989;28;20021;-78
2022/04/23 13:37:10;;;;;;;5.07;1.55;;;25.80;57.60;;;;;;5232446;28;20021;-78
2022/04/23 13:39:41;;;;;;;6.28;1.75;;;25.70;57.00;;;;;;5234107;28;20441;-75
2022/04/23 13:42:13;;;;;;;3.65;1.52;;;26.00;59.30;;;;;;5233918;28;20099;-78
2022/04/23 13:44:44;;;;;;;3.38;1.60;;;26.00;58.80;;;;;;5234123;28;20043;-77
2022/04/23 13:47:15;;;;;;;2.33;1.17;;;25.60;58.70;;;;;;5234095;28;20052;-78
2022/04/23 13:49:47;;;;;;;4.80;1.35;;;25.60;58.20;;;;;;5233997;28;20021;-78